createdAt,value
2018-05-17T00:02:22.825Z,11.80
2018-05-17T00:04:51.260Z,11.80
2018-05-17T00:07:19.698Z,11.90
2018-05-17T00:09:48.493Z,11.80
2018-05-17T00:12:16.948Z,11.70
2018-05-17T00:14:45.425Z,11.80
2018-05-17T00:17:13.976Z,11.80
2018-05-17T00:19:42.605Z,11.80
2018-05-17T00:22:11.040Z,11.80
2018-05-17T00:24:39.510Z,11.80
2018-05-17T00:27:08.162Z,11.80
2018-05-17T00:29:36.904Z,11.70
2018-05-17T00:32:06.121Z,11.70
2018-05-17T00:34:34.633Z,11.70
2018-05-17T00:37:03.272Z,11.80
2018-05-17T00:39:31.803Z,11.80
2018-05-17T00:42:00.424Z,11.90
2018-05-17T00:44:29.653Z,11.90
2018-05-17T00:46:58.215Z,11.80
2018-05-17T00:49:27.432Z,11.90
2018-05-17T00:51:55.885Z,11.80
2018-05-17T00:54:25.164Z,11.90
2018-05-17T00:56:53.759Z,11.80
2018-05-17T00:59:22.981Z,11.70
2018-05-17T01:01:52.189Z,11.90
2018-05-17T01:04:20.695Z,11.80
2018-05-17T01:06:49.455Z,11.80
2018-05-17T01:09:18.728Z,11.90
2018-05-17T01:11:48.684Z,11.90
2018-05-17T01:14:17.945Z,11.90
2018-05-17T01:16:46.585Z,11.90
2018-05-17T01:19:15.241Z,11.90
2018-05-17T01:21:44.713Z,11.90
2018-05-17T01:24:13.161Z,11.90
2018-05-17T01:26:41.468Z,11.90
2018-05-17T01:29:09.916Z,11.70
2018-05-17T01:31:38.646Z,11.60
2018-05-17T01:34:07.205Z,11.70
2018-05-17T01:49:58.880Z,11.80
2018-05-17T01:52:28.129Z,11.80
2018-05-17T01:54:56.575Z,11.70
2018-05-17T01:57:25.993Z,11.80
2018-05-17T01:59:54.119Z,11.80
2018-05-17T02:02:22.755Z,11.70
2018-05-17T02:04:51.204Z,11.70
2018-05-17T02:07:20.414Z,11.70
2018-05-17T02:09:49.717Z,11.80
2018-05-17T02:12:18.918Z,11.70
2018-05-17T02:14:47.809Z,11.80
2018-05-17T02:17:17.101Z,11.80
2018-05-17T02:19:46.520Z,11.80
2018-05-17T02:22:15.121Z,11.70
2018-05-17T02:24:43.624Z,11.80
2018-05-17T02:27:12.103Z,11.80
2018-05-17T02:29:40.573Z,11.80
2018-05-17T02:32:09.030Z,11.80
2018-05-17T02:34:38.236Z,11.80
2018-05-17T02:37:06.727Z,11.80
2018-05-17T02:39:35.929Z,11.90
2018-05-17T02:42:04.662Z,11.80
2018-05-17T02:44:34.035Z,11.90
2018-05-17T02:47:02.138Z,11.80
2018-05-17T02:49:30.600Z,11.80
2018-05-17T02:51:59.033Z,11.80
2018-05-17T02:54:28.261Z,11.80
2018-05-17T02:56:56.696Z,11.80
2018-05-17T02:59:25.358Z,11.90
2018-05-17T03:01:54.059Z,11.80
2018-05-17T03:04:22.527Z,11.80
2018-05-17T03:06:51.024Z,11.80
2018-05-17T03:09:19.205Z,11.80
2018-05-17T03:11:48.409Z,11.80
2018-05-17T03:14:18.381Z,11.80
2018-05-17T03:16:46.828Z,11.80
2018-05-17T03:19:16.053Z,11.90
2018-05-17T03:21:44.504Z,11.90
2018-05-17T03:24:13.709Z,11.90
2018-05-17T03:26:42.956Z,11.80
2018-05-17T03:29:11.666Z,11.80
2018-05-17T03:31:40.180Z,11.90
2018-05-17T03:34:09.398Z,11.90
2018-05-17T03:36:37.873Z,11.80
2018-05-17T03:39:07.098Z,11.70
2018-05-17T03:41:35.783Z,11.70
2018-05-17T03:44:04.433Z,11.80
2018-05-17T03:46:33.717Z,11.80
2018-05-17T03:49:02.153Z,11.80
2018-05-17T03:51:30.589Z,11.90
2018-05-17T03:53:59.152Z,11.80
2018-05-17T03:56:28.121Z,11.80
2018-05-17T03:58:56.573Z,11.90
2018-05-17T04:01:48.841Z,11.80
2018-05-17T04:04:28.403Z,11.80
2018-05-17T04:06:56.894Z,11.80
2018-05-17T04:09:25.336Z,11.80
2018-05-17T04:11:53.800Z,11.90
2018-05-17T04:14:23.000Z,11.80
2018-05-17T04:16:51.510Z,11.70
2018-05-17T04:19:20.173Z,11.70
2018-05-17T04:36:46.601Z,11.70
2018-05-17T04:39:15.821Z,11.70
2018-05-17T04:41:44.457Z,11.70
2018-05-17T04:44:13.733Z,11.60
2018-05-17T04:46:42.176Z,11.50
2018-05-17T04:49:11.619Z,11.50
2018-05-17T04:51:40.068Z,11.50
2018-05-17T04:54:08.588Z,11.60
2018-05-17T05:43:58.488Z,11.50
2018-05-17T05:46:26.941Z,11.60
2018-05-17T05:48:56.473Z,11.70
2018-05-17T05:51:24.945Z,11.70
2018-05-17T05:53:54.158Z,11.70
2018-05-17T05:56:23.065Z,11.70
2018-05-17T05:58:51.468Z,11.70
2018-05-17T06:01:20.031Z,11.70
2018-05-17T06:03:49.434Z,11.80
2018-05-17T06:06:17.982Z,11.90
2018-05-17T06:08:46.440Z,12.00
2018-05-17T06:11:16.496Z,12.00
2018-05-17T06:13:45.693Z,12.20
2018-05-17T06:16:14.949Z,12.50
2018-05-17T06:18:43.394Z,12.40
2018-05-17T06:21:12.054Z,12.40
2018-05-17T06:23:41.480Z,12.40
2018-05-17T06:26:10.128Z,12.40
2018-05-17T06:28:38.592Z,12.70
2018-05-17T06:31:07.224Z,12.90
2018-05-17T06:33:36.307Z,12.70
2018-05-17T06:36:05.511Z,12.30
2018-05-17T06:38:35.054Z,12.30
2018-05-17T06:41:04.423Z,12.40
2018-05-17T06:43:33.632Z,12.40
2018-05-17T06:46:02.085Z,12.40
2018-05-17T06:48:30.686Z,12.40
2018-05-17T06:50:59.905Z,12.20
2018-05-17T06:53:28.469Z,12.20
2018-05-17T06:55:57.673Z,12.20
2018-05-17T06:58:26.876Z,12.20
2018-05-17T07:00:56.243Z,12.10
2018-05-17T07:03:24.929Z,12.00
2018-05-17T07:05:54.887Z,12.00
2018-05-17T07:08:24.106Z,12.10
2018-05-17T07:10:52.556Z,12.10
2018-05-17T07:13:21.773Z,12.10
2018-05-17T07:15:50.985Z,12.10
2018-05-17T07:18:19.700Z,12.00
2018-05-17T07:20:48.235Z,12.00
2018-05-17T07:23:17.438Z,12.00
2018-05-17T07:28:15.541Z,12.10
2018-05-17T07:30:43.994Z,12.20
2018-05-17T07:33:12.665Z,12.20
2018-05-17T07:35:41.099Z,12.20
2018-05-17T07:38:09.717Z,12.20
2018-05-17T07:40:38.174Z,12.10
2018-05-17T07:43:06.636Z,12.00
2018-05-17T07:45:35.093Z,11.90
2018-05-17T07:48:03.738Z,11.60
2018-05-17T07:50:32.992Z,11.60
2018-05-17T07:53:02.191Z,11.50
2018-05-17T07:55:31.506Z,11.40
2018-05-17T07:58:00.152Z,11.30
2018-05-17T08:00:28.691Z,11.30
2018-05-17T08:02:58.048Z,11.30
2018-05-17T08:05:26.490Z,11.20
2018-05-17T08:07:54.943Z,11.30
2018-05-17T08:10:23.380Z,11.30
2018-05-17T08:12:53.345Z,11.30
2018-05-17T08:15:21.947Z,11.30
2018-05-17T08:17:51.702Z,11.30
2018-05-17T08:20:20.412Z,11.30
2018-05-17T08:22:49.641Z,11.00
2018-05-17T08:25:18.296Z,11.00
2018-05-17T08:27:47.571Z,11.00
2018-05-17T08:30:16.324Z,11.00
2018-05-17T08:32:44.808Z,11.00
2018-05-17T08:35:13.327Z,11.00
2018-05-17T08:37:42.548Z,10.90
2018-05-17T08:40:11.796Z,10.90
2018-05-17T08:42:40.509Z,10.80
2018-05-17T08:45:09.133Z,11.00
2018-05-17T08:47:38.332Z,11.00
2018-05-17T08:50:07.546Z,10.90
2018-05-17T08:52:35.980Z,10.90
2018-05-17T08:55:05.232Z,10.90
2018-05-17T08:57:33.829Z,10.80
2018-05-17T09:00:02.278Z,11.00
2018-05-17T09:02:31.176Z,11.10
2018-05-17T09:05:00.562Z,11.10
2018-05-17T09:07:29.058Z,11.10
2018-05-17T09:09:58.282Z,11.20
2018-05-17T09:12:27.692Z,11.10
2018-05-17T09:14:56.484Z,11.10
2018-05-17T09:17:24.933Z,11.10
2018-05-17T09:19:54.142Z,11.20
2018-05-17T09:22:23.714Z,11.20
2018-05-17T09:24:52.344Z,11.10
2018-05-17T09:27:20.796Z,11.20
2018-05-17T09:29:49.425Z,11.10
2018-05-17T09:32:18.101Z,11.10
2018-05-17T09:34:46.769Z,11.10
2018-05-17T09:37:16.076Z,11.20
2018-05-17T09:39:45.291Z,11.20
2018-05-17T09:42:14.473Z,11.10
2018-05-17T09:44:43.912Z,11.20
2018-05-17T09:47:12.430Z,11.20
2018-05-17T09:49:41.039Z,11.20
2018-05-17T09:52:10.316Z,11.50
2018-05-17T09:54:38.760Z,11.50
2018-05-17T09:57:07.203Z,11.60
2018-05-17T09:59:36.625Z,11.90
2018-05-17T10:02:05.924Z,11.90
2018-05-17T10:04:35.214Z,11.90
2018-05-17T10:07:04.481Z,12.30
2018-05-17T10:09:33.001Z,12.30
2018-05-17T10:12:02.205Z,12.60
2018-05-17T10:14:31.514Z,12.20
2018-05-17T10:17:00.096Z,12.10
2018-05-17T10:19:29.383Z,11.80
2018-05-17T10:21:57.860Z,11.80
2018-05-17T10:24:27.253Z,12.40
2018-05-17T10:26:55.719Z,12.40
2018-05-17T10:29:24.182Z,12.90
2018-05-17T10:31:52.844Z,12.80
2018-05-17T10:34:21.300Z,12.80
2018-05-17T10:36:50.505Z,12.80
2018-05-17T10:39:19.736Z,12.70
2018-05-17T10:41:48.182Z,12.70
2018-05-17T10:44:17.627Z,12.90
2018-05-17T10:46:46.102Z,12.90
2018-05-17T10:49:14.572Z,12.90
2018-05-17T10:51:43.218Z,12.60
2018-05-17T10:54:11.678Z,12.50
2018-05-17T10:56:40.123Z,12.50
2018-05-17T10:59:08.572Z,12.40
2018-05-17T11:01:37.364Z,12.50
2018-05-17T11:04:05.895Z,12.40
2018-05-17T11:06:34.357Z,12.40
2018-05-17T11:09:03.041Z,12.40
2018-05-17T11:11:32.490Z,12.40
2018-05-17T11:14:00.949Z,12.30
2018-05-17T11:16:29.401Z,12.40
2018-05-17T11:18:59.553Z,12.40
2018-05-17T11:21:27.998Z,12.40
2018-05-17T11:23:57.441Z,12.50
2018-05-17T11:26:26.045Z,12.50
2018-05-17T11:28:54.553Z,12.50
2018-05-17T11:31:23.299Z,12.50
2018-05-17T11:33:51.729Z,12.50
2018-05-17T11:36:20.188Z,12.70
2018-05-17T11:38:48.634Z,12.80
2018-05-17T11:41:17.128Z,12.60
2018-05-17T11:43:45.434Z,12.50
2018-05-17T11:46:13.881Z,12.50
2018-05-17T11:48:42.344Z,12.80
2018-05-17T11:51:10.788Z,12.90
2018-05-17T11:53:40.025Z,13.00
2018-05-17T11:56:09.257Z,12.90
2018-05-17T11:58:37.836Z,12.80
2018-05-17T12:01:06.318Z,12.90
2018-05-17T12:03:34.756Z,12.90
2018-05-17T12:06:04.064Z,12.70
2018-05-17T12:08:33.281Z,12.80
2018-05-17T12:11:01.738Z,12.70
2018-05-17T12:13:30.185Z,12.60
2018-05-17T12:15:58.776Z,12.60
2018-05-17T12:18:27.412Z,12.90
2018-05-17T12:20:56.637Z,12.90
2018-05-17T12:23:25.214Z,12.80
2018-05-17T12:25:53.677Z,13.20
2018-05-17T12:28:22.108Z,13.30
2018-05-17T12:30:50.632Z,13.70
2018-05-17T12:33:19.846Z,13.50
2018-05-17T12:35:47.959Z,13.50
2018-05-17T12:38:16.505Z,13.70
2018-05-17T12:40:45.792Z,13.60
2018-05-17T12:43:15.012Z,13.50
2018-05-17T13:20:36.569Z,13.50
2018-05-17T14:00:28.061Z,14.80
2018-05-17T14:02:57.390Z,14.80
2018-05-17T14:05:25.933Z,14.70
2018-05-17T14:07:54.624Z,15.00
2018-05-17T14:10:23.896Z,14.70
2018-05-17T14:12:52.333Z,14.60
2018-05-17T14:15:20.837Z,14.30
2018-05-17T14:17:50.218Z,14.40
2018-05-17T14:20:18.881Z,14.40
2018-05-17T14:22:48.301Z,14.40
2018-05-17T14:25:17.532Z,14.40
2018-05-17T14:27:45.977Z,14.40
2018-05-17T14:30:15.204Z,14.60
2018-05-17T14:35:13.916Z,14.40
2018-05-17T14:37:42.517Z,14.40
2018-05-17T14:40:11.022Z,14.40
2018-05-17T14:42:39.486Z,14.70
2018-05-17T14:45:07.932Z,14.50
2018-05-17T14:47:37.245Z,14.50
2018-05-17T14:50:05.701Z,14.40
2018-05-17T14:52:34.962Z,14.50
2018-05-17T14:55:03.449Z,14.50
2018-05-17T14:57:32.127Z,14.80
2018-05-17T15:00:00.580Z,15.00
2018-05-17T15:02:29.236Z,15.00
2018-05-17T15:04:58.480Z,15.20
2018-05-17T15:07:26.684Z,15.10
2018-05-17T15:09:55.405Z,15.30
2018-05-17T15:12:24.824Z,15.30
2018-05-17T15:14:53.318Z,15.20
2018-05-17T15:17:21.765Z,15.40
2018-05-17T15:19:51.003Z,15.70
2018-05-17T15:22:19.468Z,15.60
2018-05-17T15:24:47.962Z,15.60
2018-05-17T15:27:16.408Z,15.30
2018-05-17T15:29:45.144Z,15.10
2018-05-17T15:32:13.812Z,15.20
2018-05-17T15:34:42.243Z,15.10
2018-05-17T15:37:10.950Z,15.30
2018-05-17T15:39:39.610Z,15.30
2018-05-17T15:42:08.076Z,15.60
2018-05-17T15:44:36.517Z,15.70
2018-05-17T15:47:05.417Z,15.70
2018-05-17T15:49:34.829Z,15.80
2018-05-17T15:52:03.345Z,15.80
2018-05-17T15:54:31.783Z,15.90
2018-05-17T15:57:00.456Z,15.90
2018-05-17T15:59:29.701Z,15.60
2018-05-17T16:01:58.163Z,15.60
2018-05-17T16:04:26.697Z,15.70
2018-05-17T16:06:55.345Z,15.90
2018-05-17T16:09:23.835Z,16.00
2018-05-17T16:11:52.280Z,16.00
2018-05-17T16:14:21.495Z,15.60
2018-05-17T16:16:49.997Z,15.50
2018-05-17T16:19:18.630Z,15.70
2018-05-17T16:21:46.768Z,16.00
2018-05-17T16:24:15.410Z,15.70
2018-05-17T16:26:44.716Z,15.60
2018-05-17T16:29:13.228Z,15.50
2018-05-17T16:36:40.597Z,15.70
2018-05-17T16:39:09.160Z,16.40
2018-05-17T16:44:07.144Z,16.30
2018-05-17T16:46:35.695Z,15.90
2018-05-17T16:49:04.140Z,16.10
2018-05-17T16:51:33.596Z,15.80
2018-05-17T16:54:02.231Z,15.70
2018-05-17T16:56:30.838Z,15.80
2018-05-17T16:58:59.337Z,15.90
2018-05-17T17:01:27.812Z,16.30
2018-05-17T17:03:56.266Z,15.50
2018-05-17T17:06:24.724Z,15.10
2018-05-17T17:08:53.937Z,14.70
2018-05-17T17:11:23.177Z,14.90
2018-05-17T17:13:51.616Z,14.80
2018-05-17T17:16:20.835Z,14.60
2018-05-17T17:18:49.298Z,14.60
2018-05-17T17:21:18.533Z,14.60
2018-05-17T17:23:47.019Z,14.50
2018-05-17T17:26:16.418Z,14.50
2018-05-17T17:28:44.218Z,14.40
2018-05-17T17:31:12.686Z,14.30
2018-05-17T17:33:41.238Z,14.30
2018-05-17T17:36:09.692Z,14.40
2018-05-17T17:38:38.946Z,14.30
2018-05-17T17:41:07.393Z,14.20
2018-05-17T17:43:35.836Z,14.20
2018-05-17T17:46:04.307Z,14.10
2018-05-17T17:48:32.469Z,14.10
2018-05-17T17:51:00.998Z,14.10
2018-05-17T17:53:30.261Z,13.90
2018-05-17T17:55:58.733Z,13.80
2018-05-17T17:58:27.291Z,13.90
2018-05-17T18:00:55.857Z,13.90
2018-05-17T18:03:25.072Z,13.70
2018-05-17T18:05:53.562Z,13.60
2018-05-17T18:08:22.219Z,13.60
2018-05-17T18:10:51.475Z,13.60
2018-05-17T18:13:20.059Z,13.60
2018-05-17T18:15:48.518Z,13.70
2018-05-17T18:18:16.985Z,13.60
2018-05-17T18:20:45.458Z,13.60
2018-05-17T18:23:14.736Z,13.30
2018-05-17T18:25:43.197Z,13.30
2018-05-17T18:28:11.683Z,13.20
2018-05-17T18:30:40.224Z,13.10
2018-05-17T18:33:08.689Z,13.10
2018-05-17T18:35:38.248Z,12.90
2018-05-17T18:38:06.835Z,12.80
2018-05-17T18:40:35.325Z,12.90
2018-05-17T18:43:03.864Z,12.90
2018-05-17T18:45:33.155Z,12.80
2018-05-17T18:48:02.377Z,12.60
2018-05-17T18:50:30.870Z,12.50
2018-05-17T18:52:59.313Z,12.40
2018-05-17T18:55:28.757Z,12.30
2018-05-17T18:57:57.228Z,12.20
2018-05-17T19:00:25.745Z,12.30
2018-05-17T19:02:54.381Z,12.20
2018-05-17T19:05:22.856Z,12.10
2018-05-17T19:07:52.083Z,11.90
2018-05-17T19:10:20.629Z,11.80
2018-05-17T19:12:49.870Z,11.80
2018-05-17T19:15:18.396Z,11.80
2018-05-17T19:17:46.863Z,11.80
2018-05-17T19:20:15.554Z,11.80
2018-05-17T19:22:44.155Z,11.70
2018-05-17T19:25:12.635Z,11.70
2018-05-17T19:27:41.163Z,11.70
2018-05-17T19:30:09.608Z,11.60
2018-05-17T19:32:38.824Z,11.40
2018-05-17T19:35:08.068Z,11.40
2018-05-17T19:37:36.545Z,11.30
2018-05-17T19:40:04.691Z,11.30
2018-05-17T19:42:33.909Z,11.30
2018-05-17T19:45:02.380Z,11.20
2018-05-17T19:47:30.828Z,11.20
2018-05-17T19:50:00.141Z,11.20
2018-05-17T19:52:28.590Z,11.10
2018-05-17T19:54:57.053Z,11.20
2018-05-17T19:57:25.664Z,11.20
2018-05-17T19:59:54.193Z,11.00
2018-05-17T20:02:23.419Z,10.80
2018-05-17T20:04:51.908Z,10.80
2018-05-17T20:07:20.576Z,10.80
2018-05-17T20:09:49.076Z,10.80
2018-05-17T20:12:17.543Z,10.80
2018-05-17T20:14:45.999Z,10.90
2018-05-17T20:17:15.236Z,10.80
2018-05-17T20:19:43.795Z,10.80
2018-05-17T20:22:12.301Z,10.80
2018-05-17T20:24:40.753Z,10.80
2018-05-17T20:27:10.180Z,10.60
2018-05-17T20:29:38.680Z,10.60
2018-05-17T20:32:07.142Z,10.50
2018-05-17T20:34:35.613Z,10.40
2018-05-17T20:37:04.141Z,10.50
2018-05-17T20:39:32.625Z,10.60
2018-05-17T20:42:01.278Z,10.60
2018-05-17T20:44:29.934Z,10.50
2018-05-17T20:46:59.178Z,10.50
2018-05-17T20:49:27.777Z,10.40
2018-05-17T20:51:57.236Z,10.40
2018-05-17T20:54:26.450Z,10.40
2018-05-17T20:56:54.916Z,10.40
2018-05-17T20:59:23.377Z,10.40
2018-05-17T21:01:52.061Z,10.30
2018-05-17T21:04:21.370Z,10.30
2018-05-17T21:06:49.888Z,10.20
2018-05-17T21:09:18.578Z,10.30
2018-05-17T21:11:47.029Z,10.30
2018-05-17T21:14:16.377Z,10.00
2018-05-17T21:16:44.847Z,9.90
2018-05-17T21:19:13.318Z,9.90
2018-05-17T21:21:41.761Z,9.80
2018-05-17T21:24:10.286Z,9.80
2018-05-17T21:26:38.732Z,9.80
2018-05-17T21:29:08.063Z,9.80
2018-05-17T21:31:37.343Z,9.70
2018-05-17T21:34:06.231Z,9.80
2018-05-17T21:36:34.720Z,9.70
2018-05-17T21:39:03.973Z,9.80
2018-05-17T21:41:32.441Z,9.80
2018-05-17T21:44:00.917Z,9.70
2018-05-17T21:46:29.380Z,9.70
2018-05-17T21:48:57.866Z,9.80
2018-05-17T21:51:26.468Z,9.70
2018-05-17T21:53:54.991Z,9.60
2018-05-17T21:56:23.443Z,9.50
2018-05-17T21:58:51.872Z,9.50
2018-05-17T22:01:21.108Z,9.50
2018-05-17T22:03:49.597Z,9.50
2018-05-17T22:06:18.083Z,9.50
2018-05-17T22:08:47.468Z,9.40
2018-05-17T22:11:15.909Z,9.40
2018-05-17T22:13:44.361Z,9.50
2018-05-17T22:16:12.471Z,9.50
2018-05-17T22:18:40.989Z,9.40
2018-05-17T22:21:09.430Z,9.40
2018-05-17T22:23:39.392Z,9.30
2018-05-17T22:26:07.840Z,9.30
2018-05-17T22:28:36.421Z,9.30
2018-05-17T22:31:05.641Z,9.20
2018-05-17T22:33:34.931Z,9.20
2018-05-17T22:36:04.408Z,9.10
2018-05-17T22:38:33.062Z,9.10
2018-05-17T22:41:01.217Z,9.10
2018-05-17T22:43:29.666Z,9.10
2018-05-17T22:45:58.960Z,9.10
2018-05-17T22:48:28.156Z,9.10
2018-05-17T22:50:56.660Z,9.10
2018-05-17T22:53:25.973Z,9.10
2018-05-17T22:55:55.189Z,9.00
2018-05-17T22:58:33.989Z,9.00
2018-05-17T23:01:03.221Z,8.80
2018-05-17T23:03:31.698Z,8.80
2018-05-17T23:06:00.145Z,8.90
2018-05-17T23:08:28.265Z,8.90
2018-05-17T23:10:56.871Z,8.90
2018-05-17T23:13:25.324Z,8.90
2018-05-17T23:15:53.765Z,8.80
2018-05-17T23:18:22.321Z,8.70
2018-05-17T23:20:50.788Z,8.70
2018-05-17T23:23:18.959Z,8.70
2018-05-17T23:25:47.438Z,8.60
2018-05-17T23:28:15.900Z,8.60
2018-05-17T23:30:44.353Z,8.60
2018-05-17T23:33:13.565Z,8.50
2018-05-17T23:35:42.485Z,8.40
2018-05-17T23:38:10.925Z,8.40
2018-05-17T23:41:02.943Z,8.50
2018-05-17T23:43:31.520Z,8.50
2018-05-17T23:46:00.016Z,8.40
2018-05-17T23:48:30.009Z,8.40
2018-05-17T23:50:58.458Z,8.40
2018-05-17T23:53:26.928Z,8.30
2018-05-17T23:55:56.132Z,8.40
2018-05-17T23:58:25.344Z,8.40
